Pagrindinis puslapis
METAR-TAF:

METAR-TAF

Oro uostai :

Vanas, Turkija

platuma: 38-27N, ilguma: 043-19E, Aukštis: 1667 m

Dabartinis oras

Ataskaita buvo paskelbta 55 minutes, ne 21:50 UTC
Vėjas 4 kt iš Rytų
Temperatūra 12°C
Drėgmė 50%
Slėgis 1018 hPa
Matomumas 10 km arba daugiau
Mažai debesys ne aukštis 4000 ft

METAR: LTCI 172150Z 08004KT 9999 FEW040 12/02 Q1018 NOSIG

Laikas: 01:45 (22:45 UTC)

Prognozė

Ataskaita buvo paskelbta 3 valandos ir 5 minutes, ne 19:40 UTC
Prognozė galioja nuo 17 metu 21 UTC su 18 metu 06 UTC
Vėjas 7 kt iš Pietų/Pietryčių
Matomumas 10 km arba daugiau
Mažai debesys ne aukštis 4000 ft
Tapsmas
nuo 18 metu 04 UTC su 18 metu 06 UTC
Vėjas 10 kt iš Vakarų/Šiaurės Vakarų

TAF: LTCI 171940Z 1721/1806 15007KT 9999 FEW040 BECMG 1804/1806 30010KT

Orai ataskaitas ir orų prognozės (METAR, TAF).

turimą stotys yra geltonos ir raudonos taškus žemėlapyje.

Perkelti pele per norėdami pamatyti stoties vardą.

Tada spustelėkite, norėdami matyti oro stebėjimo ir prognozės.

Norėdami pakeisti žemėlapį: spustelėkite ant žalios mygtukų su juodo kryžiaus žemyn,; žalią mygtuką su brūkšneliu, jei norite nutolinti; arba žalių rodyklių gretimoms žemėlapius.


METAR-TAF: